sensor_id;sensor_type;location;lat;lon;timestamp;P1;durP1;ratioP1;P2;durP2;ratioP2
52854;SDS011;38719;51.418;7.286;2022-09-27T00:00:16;7.00;;;3.00;;
52854;SDS011;38719;51.418;7.286;2022-09-27T00:02:44;8.57;;;3.30;;
52854;SDS011;38719;51.418;7.286;2022-09-27T00:05:12;6.88;;;3.38;;
52854;SDS011;38719;51.418;7.286;2022-09-27T00:07:40;7.13;;;3.45;;
52854;SDS011;38719;51.418;7.286;2022-09-27T00:10:09;7.20;;;3.10;;
52854;SDS011;38719;51.418;7.286;2022-09-27T00:12:37;5.78;;;3.10;;
52854;SDS011;38719;51.418;7.286;2022-09-27T00:15:05;6.93;;;3.25;;
52854;SDS011;38719;51.418;7.286;2022-09-27T00:17:35;8.93;;;3.33;;
52854;SDS011;38719;51.418;7.286;2022-09-27T00:20:03;6.80;;;2.90;;
52854;SDS011;38719;51.418;7.286;2022-09-27T00:22:33;8.13;;;3.22;;
52854;SDS011;38719;51.418;7.286;2022-09-27T00:25:01;3.35;;;2.67;;
52854;SDS011;38719;51.418;7.286;2022-09-27T00:27:32;7.00;;;2.60;;
52854;SDS011;38719;51.418;7.286;2022-09-27T00:29:59;8.40;;;2.88;;
52854;SDS011;38719;51.418;7.286;2022-09-27T00:32:27;6.60;;;2.70;;
52854;SDS011;38719;51.418;7.286;2022-09-27T00:34:54;5.80;;;2.67;;
52854;SDS011;38719;51.418;7.286;2022-09-27T00:37:22;7.72;;;2.47;;
52854;SDS011;38719;51.418;7.286;2022-09-27T00:39:50;5.57;;;2.58;;
52854;SDS011;38719;51.418;7.286;2022-09-27T00:42:17;5.20;;;2.70;;
52854;SDS011;38719;51.418;7.286;2022-09-27T00:45:00;6.25;;;2.80;;
52854;SDS011;38719;51.418;7.286;2022-09-27T00:50:07;3.63;;;2.45;;
52854;SDS011;38719;51.418;7.286;2022-09-27T00:52:42;5.32;;;2.55;;
52854;SDS011;38719;51.418;7.286;2022-09-27T00:55:15;8.20;;;3.22;;
52854;SDS011;38719;51.418;7.286;2022-09-27T00:57:46;6.15;;;2.45;;
52854;SDS011;38719;51.418;7.286;2022-09-27T01:00:16;7.05;;;3.05;;
52854;SDS011;38719;51.418;7.286;2022-09-27T01:02:45;8.57;;;3.45;;
52854;SDS011;38719;51.418;7.286;2022-09-27T01:05:15;8.65;;;3.40;;
52854;SDS011;38719;51.418;7.286;2022-09-27T01:07:46;6.25;;;3.58;;
52854;SDS011;38719;51.418;7.286;2022-09-27T01:10:13;5.30;;;3.13;;
52854;SDS011;38719;51.418;7.286;2022-09-27T01:12:44;9.57;;;3.70;;
52854;SDS011;38719;51.418;7.286;2022-09-27T01:15:23;10.60;;;4.07;;
52854;SDS011;38719;51.418;7.286;2022-09-27T01:20:44;7.57;;;3.75;;
52854;SDS011;38719;51.418;7.286;2022-09-27T01:26:24;12.07;;;5.03;;
52854;SDS011;38719;51.418;7.286;2022-09-27T01:29:10;11.23;;;5.10;;
52854;SDS011;38719;51.418;7.286;2022-09-27T01:31:46;12.07;;;6.10;;
52854;SDS011;38719;51.418;7.286;2022-09-27T01:34:19;9.32;;;5.50;;
52854;SDS011;38719;51.418;7.286;2022-09-27T01:36:53;12.15;;;6.22;;
52854;SDS011;38719;51.418;7.286;2022-09-27T01:39:31;12.40;;;6.20;;
52854;SDS011;38719;51.418;7.286;2022-09-27T01:42:06;10.20;;;5.75;;
52854;SDS011;38719;51.418;7.286;2022-09-27T01:44:46;14.98;;;6.75;;
52854;SDS011;38719;51.418;7.286;2022-09-27T01:47:21;14.57;;;6.27;;
52854;SDS011;38719;51.418;7.286;2022-09-27T01:49:53;13.13;;;6.20;;
52854;SDS011;38719;51.418;7.286;2022-09-27T01:52:26;11.32;;;6.93;;
52854;SDS011;38719;51.418;7.286;2022-09-27T01:54:59;9.68;;;5.93;;
52854;SDS011;38719;51.418;7.286;2022-09-27T01:57:30;14.00;;;7.35;;
52854;SDS011;38719;51.418;7.286;2022-09-27T02:00:02;17.55;;;7.90;;
52854;SDS011;38719;51.418;7.286;2022-09-27T02:02:35;14.38;;;7.85;;
52854;SDS011;38719;51.418;7.286;2022-09-27T02:05:07;17.20;;;8.70;;
52854;SDS011;38719;51.418;7.286;2022-09-27T02:07:41;14.88;;;9.95;;
52854;SDS011;38719;51.418;7.286;2022-09-27T02:10:14;15.57;;;9.85;;
52854;SDS011;38719;51.418;7.286;2022-09-27T02:12:45;14.32;;;10.18;;
52854;SDS011;38719;51.418;7.286;2022-09-27T02:15:18;14.38;;;9.38;;
52854;SDS011;38719;51.418;7.286;2022-09-27T02:17:49;16.17;;;9.85;;
52854;SDS011;38719;51.418;7.286;2022-09-27T02:20:28;15.18;;;9.80;;
52854;SDS011;38719;51.418;7.286;2022-09-27T02:22:59;16.38;;;9.82;;
52854;SDS011;38719;51.418;7.286;2022-09-27T02:25:37;18.50;;;9.85;;
52854;SDS011;38719;51.418;7.286;2022-09-27T02:28:12;15.25;;;9.13;;
52854;SDS011;38719;51.418;7.286;2022-09-27T02:30:48;15.18;;;8.88;;
52854;SDS011;38719;51.418;7.286;2022-09-27T02:33:18;16.33;;;9.00;;
52854;SDS011;38719;51.418;7.286;2022-09-27T02:35:48;16.67;;;9.30;;
52854;SDS011;38719;51.418;7.286;2022-09-27T02:38:16;18.20;;;9.60;;
52854;SDS011;38719;51.418;7.286;2022-09-27T02:40:45;16.05;;;9.32;;
52854;SDS011;38719;51.418;7.286;2022-09-27T02:43:14;12.77;;;8.00;;
52854;SDS011;38719;51.418;7.286;2022-09-27T02:45:46;14.00;;;8.18;;
52854;SDS011;38719;51.418;7.286;2022-09-27T02:48:25;15.27;;;7.38;;
52854;SDS011;38719;51.418;7.286;2022-09-27T02:51:04;11.27;;;7.40;;
52854;SDS011;38719;51.418;7.286;2022-09-27T02:53:55;11.82;;;7.40;;
52854;SDS011;38719;51.418;7.286;2022-09-27T02:56:33;10.70;;;6.63;;
52854;SDS011;38719;51.418;7.286;2022-09-27T02:59:08;10.32;;;6.68;;
52854;SDS011;38719;51.418;7.286;2022-09-27T03:01:47;12.05;;;5.60;;
52854;SDS011;38719;51.418;7.286;2022-09-27T03:04:26;12.00;;;6.50;;
52854;SDS011;38719;51.418;7.286;2022-09-27T03:06:57;9.15;;;5.70;;
52854;SDS011;38719;51.418;7.286;2022-09-27T03:09:27;9.43;;;5.90;;
52854;SDS011;38719;51.418;7.286;2022-09-27T03:11:56;8.48;;;5.60;;
52854;SDS011;38719;51.418;7.286;2022-09-27T03:14:23;8.55;;;5.72;;
52854;SDS011;38719;51.418;7.286;2022-09-27T03:16:51;12.05;;;6.15;;
52854;SDS011;38719;51.418;7.286;2022-09-27T03:19:18;13.63;;;6.72;;
52854;SDS011;38719;51.418;7.286;2022-09-27T03:21:47;10.82;;;5.97;;
52854;SDS011;38719;51.418;7.286;2022-09-27T03:24:15;10.55;;;6.28;;
52854;SDS011;38719;51.418;7.286;2022-09-27T03:26:42;14.25;;;5.70;;
52854;SDS011;38719;51.418;7.286;2022-09-27T03:29:10;8.75;;;5.95;;
52854;SDS011;38719;51.418;7.286;2022-09-27T03:31:38;9.43;;;6.25;;
52854;SDS011;38719;51.418;7.286;2022-09-27T03:34:06;12.85;;;5.75;;
52854;SDS011;38719;51.418;7.286;2022-09-27T03:36:33;11.88;;;7.20;;
52854;SDS011;38719;51.418;7.286;2022-09-27T03:39:02;9.00;;;6.05;;
52854;SDS011;38719;51.418;7.286;2022-09-27T03:41:30;11.73;;;6.50;;
52854;SDS011;38719;51.418;7.286;2022-09-27T03:43:58;9.48;;;6.57;;
52854;SDS011;38719;51.418;7.286;2022-09-27T03:46:25;14.52;;;6.53;;
52854;SDS011;38719;51.418;7.286;2022-09-27T03:48:53;11.77;;;6.93;;
52854;SDS011;38719;51.418;7.286;2022-09-27T03:51:21;10.48;;;7.38;;
52854;SDS011;38719;51.418;7.286;2022-09-27T03:53:49;17.23;;;7.20;;
52854;SDS011;38719;51.418;7.286;2022-09-27T03:56:18;10.23;;;7.22;;
52854;SDS011;38719;51.418;7.286;2022-09-27T03:58:46;12.40;;;6.68;;
52854;SDS011;38719;51.418;7.286;2022-09-27T04:01:14;11.95;;;6.10;;
52854;SDS011;38719;51.418;7.286;2022-09-27T04:03:41;8.48;;;6.47;;
52854;SDS011;38719;51.418;7.286;2022-09-27T04:06:09;11.48;;;6.57;;
52854;SDS011;38719;51.418;7.286;2022-09-27T04:08:36;9.80;;;5.70;;
52854;SDS011;38719;51.418;7.286;2022-09-27T04:11:04;9.38;;;5.70;;
52854;SDS011;38719;51.418;7.286;2022-09-27T04:13:33;10.52;;;5.90;;
52854;SDS011;38719;51.418;7.286;2022-09-27T04:16:01;10.73;;;6.07;;
52854;SDS011;38719;51.418;7.286;2022-09-27T04:18:29;11.32;;;6.00;;
52854;SDS011;38719;51.418;7.286;2022-09-27T04:20:56;13.35;;;6.53;;
52854;SDS011;38719;51.418;7.286;2022-09-27T04:23:24;11.70;;;6.07;;
52854;SDS011;38719;51.418;7.286;2022-09-27T04:25:55;11.65;;;6.50;;
52854;SDS011;38719;51.418;7.286;2022-09-27T04:28:23;10.82;;;6.50;;
52854;SDS011;38719;51.418;7.286;2022-09-27T04:30:52;18.88;;;6.68;;
52854;SDS011;38719;51.418;7.286;2022-09-27T04:33:20;11.68;;;6.38;;
52854;SDS011;38719;51.418;7.286;2022-09-27T04:35:47;10.60;;;6.00;;
52854;SDS011;38719;51.418;7.286;2022-09-27T04:38:33;10.15;;;6.53;;
52854;SDS011;38719;51.418;7.286;2022-09-27T04:41:01;12.45;;;6.63;;
52854;SDS011;38719;51.418;7.286;2022-09-27T04:43:29;11.45;;;6.25;;
52854;SDS011;38719;51.418;7.286;2022-09-27T04:45:57;11.57;;;6.65;;
52854;SDS011;38719;51.418;7.286;2022-09-27T04:48:25;10.90;;;7.55;;
52854;SDS011;38719;51.418;7.286;2022-09-27T04:50:56;14.43;;;7.45;;
52854;SDS011;38719;51.418;7.286;2022-09-27T04:53:24;13.43;;;7.80;;
52854;SDS011;38719;51.418;7.286;2022-09-27T04:55:52;11.77;;;7.35;;
52854;SDS011;38719;51.418;7.286;2022-09-27T04:58:20;11.52;;;8.18;;
52854;SDS011;38719;51.418;7.286;2022-09-27T05:00:49;11.02;;;7.07;;
52854;SDS011;38719;51.418;7.286;2022-09-27T05:03:19;14.73;;;7.32;;
52854;SDS011;38719;51.418;7.286;2022-09-27T05:05:47;14.48;;;6.95;;
52854;SDS011;38719;51.418;7.286;2022-09-27T05:08:15;9.68;;;6.95;;
52854;SDS011;38719;51.418;7.286;2022-09-27T05:10:42;11.50;;;7.28;;
52854;SDS011;38719;51.418;7.286;2022-09-27T05:13:10;15.35;;;8.15;;
52854;SDS011;38719;51.418;7.286;2022-09-27T05:15:38;13.88;;;8.50;;
52854;SDS011;38719;51.418;7.286;2022-09-27T05:18:05;13.55;;;8.95;;
52854;SDS011;38719;51.418;7.286;2022-09-27T05:20:36;16.92;;;9.20;;
52854;SDS011;38719;51.418;7.286;2022-09-27T05:23:04;13.85;;;8.88;;
52854;SDS011;38719;51.418;7.286;2022-09-27T05:25:32;16.80;;;10.95;;
52854;SDS011;38719;51.418;7.286;2022-09-27T05:28:00;16.83;;;11.80;;
52854;SDS011;38719;51.418;7.286;2022-09-27T05:30:28;21.58;;;12.00;;
52854;SDS011;38719;51.418;7.286;2022-09-27T05:32:56;19.33;;;11.48;;
52854;SDS011;38719;51.418;7.286;2022-09-27T05:35:24;19.80;;;11.68;;
52854;SDS011;38719;51.418;7.286;2022-09-27T05:37:53;16.67;;;10.75;;
52854;SDS011;38719;51.418;7.286;2022-09-27T05:40:22;19.80;;;11.32;;
52854;SDS011;38719;51.418;7.286;2022-09-27T05:45:35;19.52;;;11.05;;
52854;SDS011;38719;51.418;7.286;2022-09-27T05:48:03;19.60;;;11.48;;
52854;SDS011;38719;51.418;7.286;2022-09-27T05:50:30;18.98;;;10.70;;
52854;SDS011;38719;51.418;7.286;2022-09-27T05:52:59;17.00;;;9.88;;
52854;SDS011;38719;51.418;7.286;2022-09-27T05:55:27;21.77;;;11.63;;
52854;SDS011;38719;51.418;7.286;2022-09-27T05:57:56;19.10;;;10.57;;
52854;SDS011;38719;51.418;7.286;2022-09-27T06:00:25;15.55;;;9.00;;
52854;SDS011;38719;51.418;7.286;2022-09-27T06:02:54;11.25;;;8.13;;
52854;SDS011;38719;51.418;7.286;2022-09-27T06:05:23;11.48;;;8.32;;
52854;SDS011;38719;51.418;7.286;2022-09-27T06:07:51;12.57;;;7.60;;
52854;SDS011;38719;51.418;7.286;2022-09-27T06:10:25;12.73;;;7.30;;
52854;SDS011;38719;51.418;7.286;2022-09-27T06:12:57;11.27;;;6.85;;
52854;SDS011;38719;51.418;7.286;2022-09-27T06:15:26;15.38;;;7.15;;
52854;SDS011;38719;51.418;7.286;2022-09-27T06:17:54;11.57;;;7.50;;
52854;SDS011;38719;51.418;7.286;2022-09-27T06:20:21;9.20;;;6.30;;
52854;SDS011;38719;51.418;7.286;2022-09-27T06:22:49;10.68;;;6.50;;
52854;SDS011;38719;51.418;7.286;2022-09-27T06:25:19;9.80;;;6.68;;
52854;SDS011;38719;51.418;7.286;2022-09-27T06:27:48;8.48;;;5.95;;
52854;SDS011;38719;51.418;7.286;2022-09-27T06:30:15;9.73;;;6.53;;
52854;SDS011;38719;51.418;7.286;2022-09-27T06:32:45;9.65;;;6.50;;
52854;SDS011;38719;51.418;7.286;2022-09-27T06:35:13;10.77;;;6.72;;
52854;SDS011;38719;51.418;7.286;2022-09-27T06:37:41;12.52;;;6.55;;
52854;SDS011;38719;51.418;7.286;2022-09-27T06:40:11;17.90;;;6.35;;
52854;SDS011;38719;51.418;7.286;2022-09-27T06:42:39;8.68;;;5.15;;
52854;SDS011;38719;51.418;7.286;2022-09-27T06:45:08;7.72;;;4.85;;
52854;SDS011;38719;51.418;7.286;2022-09-27T06:47:36;7.65;;;4.03;;
52854;SDS011;38719;51.418;7.286;2022-09-27T06:50:05;9.80;;;4.05;;
52854;SDS011;38719;51.418;7.286;2022-09-27T06:52:33;7.85;;;3.80;;
52854;SDS011;38719;51.418;7.286;2022-09-27T06:55:02;6.40;;;4.07;;
52854;SDS011;38719;51.418;7.286;2022-09-27T06:57:30;6.60;;;3.55;;
52854;SDS011;38719;51.418;7.286;2022-09-27T07:00:17;4.97;;;3.05;;
52854;SDS011;38719;51.418;7.286;2022-09-27T07:02:52;9.50;;;3.05;;
52854;SDS011;38719;51.418;7.286;2022-09-27T07:05:26;7.50;;;3.45;;
52854;SDS011;38719;51.418;7.286;2022-09-27T07:07:54;9.48;;;3.08;;
52854;SDS011;38719;51.418;7.286;2022-09-27T07:10:23;5.07;;;2.60;;
52854;SDS011;38719;51.418;7.286;2022-09-27T07:12:52;6.47;;;2.53;;
52854;SDS011;38719;51.418;7.286;2022-09-27T07:15:22;6.95;;;2.72;;
52854;SDS011;38719;51.418;7.286;2022-09-27T07:17:54;5.40;;;2.30;;
52854;SDS011;38719;51.418;7.286;2022-09-27T07:20:23;5.28;;;2.22;;
52854;SDS011;38719;51.418;7.286;2022-09-27T07:22:50;4.20;;;2.15;;
52854;SDS011;38719;51.418;7.286;2022-09-27T07:25:18;5.57;;;2.42;;
52854;SDS011;38719;51.418;7.286;2022-09-27T07:27:46;3.97;;;2.88;;
52854;SDS011;38719;51.418;7.286;2022-09-27T07:30:14;3.53;;;2.78;;
52854;SDS011;38719;51.418;7.286;2022-09-27T07:32:43;4.28;;;2.42;;
52854;SDS011;38719;51.418;7.286;2022-09-27T07:35:11;7.38;;;2.65;;
52854;SDS011;38719;51.418;7.286;2022-09-27T07:37:40;7.95;;;2.85;;
52854;SDS011;38719;51.418;7.286;2022-09-27T07:40:08;5.18;;;2.72;;
52854;SDS011;38719;51.418;7.286;2022-09-27T07:42:36;3.03;;;2.40;;
52854;SDS011;38719;51.418;7.286;2022-09-27T07:45:06;4.68;;;3.10;;
52854;SDS011;38719;51.418;7.286;2022-09-27T07:47:36;5.82;;;3.00;;
52854;SDS011;38719;51.418;7.286;2022-09-27T07:50:06;5.60;;;3.28;;
52854;SDS011;38719;51.418;7.286;2022-09-27T07:52:39;3.65;;;3.13;;
52854;SDS011;38719;51.418;7.286;2022-09-27T07:55:08;3.20;;;2.90;;
52854;SDS011;38719;51.418;7.286;2022-09-27T07:57:36;6.13;;;3.20;;
52854;SDS011;38719;51.418;7.286;2022-09-27T08:00:05;4.95;;;3.03;;
52854;SDS011;38719;51.418;7.286;2022-09-27T08:02:35;9.45;;;2.90;;
52854;SDS011;38719;51.418;7.286;2022-09-27T08:05:03;4.22;;;2.50;;
52854;SDS011;38719;51.418;7.286;2022-09-27T08:07:32;3.35;;;2.33;;
52854;SDS011;38719;51.418;7.286;2022-09-27T08:10:00;3.72;;;2.13;;
52854;SDS011;38719;51.418;7.286;2022-09-27T08:12:27;3.55;;;2.05;;
52854;SDS011;38719;51.418;7.286;2022-09-27T08:14:55;3.97;;;2.28;;
52854;SDS011;38719;51.418;7.286;2022-09-27T08:17:26;6.68;;;2.00;;
52854;SDS011;38719;51.418;7.286;2022-09-27T08:19:54;4.30;;;2.38;;
52854;SDS011;38719;51.418;7.286;2022-09-27T08:22:22;2.10;;;1.90;;
52854;SDS011;38719;51.418;7.286;2022-09-27T08:24:50;3.38;;;1.90;;
52854;SDS011;38719;51.418;7.286;2022-09-27T08:27:18;2.30;;;1.90;;
52854;SDS011;38719;51.418;7.286;2022-09-27T08:29:45;6.13;;;2.10;;
52854;SDS011;38719;51.418;7.286;2022-09-27T08:32:13;4.80;;;1.90;;
52854;SDS011;38719;51.418;7.286;2022-09-27T08:34:48;2.60;;;1.88;;
52854;SDS011;38719;51.418;7.286;2022-09-27T08:37:16;3.22;;;2.20;;
52854;SDS011;38719;51.418;7.286;2022-09-27T08:39:43;5.50;;;2.10;;
52854;SDS011;38719;51.418;7.286;2022-09-27T08:42:16;4.28;;;2.13;;
52854;SDS011;38719;51.418;7.286;2022-09-27T08:44:57;2.35;;;2.15;;
52854;SDS011;38719;51.418;7.286;2022-09-27T08:47:31;3.92;;;2.60;;
52854;SDS011;38719;51.418;7.286;2022-09-27T08:50:03;2.83;;;2.20;;
52854;SDS011;38719;51.418;7.286;2022-09-27T08:52:41;3.92;;;2.30;;
52854;SDS011;38719;51.418;7.286;2022-09-27T08:55:16;6.72;;;3.08;;
52854;SDS011;38719;51.418;7.286;2022-09-27T08:57:53;4.85;;;3.38;;
52854;SDS011;38719;51.418;7.286;2022-09-27T09:00:23;3.33;;;2.25;;
52854;SDS011;38719;51.418;7.286;2022-09-27T09:02:51;3.30;;;2.20;;
52854;SDS011;38719;51.418;7.286;2022-09-27T09:05:21;4.85;;;2.20;;
52854;SDS011;38719;51.418;7.286;2022-09-27T09:10:32;6.30;;;2.42;;
52854;SDS011;38719;51.418;7.286;2022-09-27T09:13:33;2.88;;;2.25;;
52854;SDS011;38719;51.418;7.286;2022-09-27T09:16:15;3.50;;;2.30;;
52854;SDS011;38719;51.418;7.286;2022-09-27T09:18:57;2.10;;;1.90;;
52854;SDS011;38719;51.418;7.286;2022-09-27T09:21:34;3.55;;;2.00;;
52854;SDS011;38719;51.418;7.286;2022-09-27T09:24:17;2.92;;;2.00;;
52854;SDS011;38719;51.418;7.286;2022-09-27T09:26:57;5.90;;;1.83;;
52854;SDS011;38719;51.418;7.286;2022-09-27T09:29:43;1.73;;;1.60;;
52854;SDS011;38719;51.418;7.286;2022-09-27T09:32:26;2.00;;;1.80;;
52854;SDS011;38719;51.418;7.286;2022-09-27T09:35:01;1.67;;;1.50;;
52854;SDS011;38719;51.418;7.286;2022-09-27T09:37:34;3.25;;;1.90;;
52854;SDS011;38719;51.418;7.286;2022-09-27T09:40:07;1.88;;;1.73;;
52854;SDS011;38719;51.418;7.286;2022-09-27T09:42:44;3.13;;;1.85;;
52854;SDS011;38719;51.418;7.286;2022-09-27T09:45:20;3.05;;;2.08;;
52854;SDS011;38719;51.418;7.286;2022-09-27T09:47:53;2.17;;;1.73;;
52854;SDS011;38719;51.418;7.286;2022-09-27T09:50:27;2.13;;;1.50;;
52854;SDS011;38719;51.418;7.286;2022-09-27T09:53:01;2.45;;;1.73;;
52854;SDS011;38719;51.418;7.286;2022-09-27T09:55:37;3.60;;;1.88;;
52854;SDS011;38719;51.418;7.286;2022-09-27T09:58:11;1.88;;;1.77;;
52854;SDS011;38719;51.418;7.286;2022-09-27T10:00:48;2.42;;;1.80;;
52854;SDS011;38719;51.418;7.286;2022-09-27T10:03:19;2.28;;;1.70;;
52854;SDS011;38719;51.418;7.286;2022-09-27T10:05:47;4.75;;;1.92;;
52854;SDS011;38719;51.418;7.286;2022-09-27T10:08:16;2.30;;;1.60;;
52854;SDS011;38719;51.418;7.286;2022-09-27T10:10:46;2.10;;;1.88;;
52854;SDS011;38719;51.418;7.286;2022-09-27T10:13:14;1.70;;;1.60;;
52854;SDS011;38719;51.418;7.286;2022-09-27T10:15:44;2.72;;;1.77;;
52854;SDS011;38719;51.418;7.286;2022-09-27T10:18:19;2.22;;;1.63;;
52854;SDS011;38719;51.418;7.286;2022-09-27T10:20:49;1.90;;;1.80;;
52854;SDS011;38719;51.418;7.286;2022-09-27T10:23:21;2.28;;;1.88;;
52854;SDS011;38719;51.418;7.286;2022-09-27T10:25:51;2.65;;;1.90;;
52854;SDS011;38719;51.418;7.286;2022-09-27T10:28:31;2.10;;;1.90;;
52854;SDS011;38719;51.418;7.286;2022-09-27T10:31:04;2.10;;;2.00;;
52854;SDS011;38719;51.418;7.286;2022-09-27T10:33:33;6.13;;;1.95;;
52854;SDS011;38719;51.418;7.286;2022-09-27T10:36:06;5.47;;;2.00;;
52854;SDS011;38719;51.418;7.286;2022-09-27T10:38:51;2.40;;;2.10;;
52854;SDS011;38719;51.418;7.286;2022-09-27T10:41:22;1.83;;;1.73;;
52854;SDS011;38719;51.418;7.286;2022-09-27T10:43:50;2.95;;;2.10;;
52854;SDS011;38719;51.418;7.286;2022-09-27T10:46:23;3.30;;;2.03;;
52854;SDS011;38719;51.418;7.286;2022-09-27T10:49:09;5.70;;;1.90;;
52854;SDS011;38719;51.418;7.286;2022-09-27T10:51:44;4.13;;;2.30;;
52854;SDS011;38719;51.418;7.286;2022-09-27T10:54:17;2.20;;;1.98;;
52854;SDS011;38719;51.418;7.286;2022-09-27T10:56:52;5.63;;;2.22;;
52854;SDS011;38719;51.418;7.286;2022-09-27T10:59:22;5.93;;;2.00;;
52854;SDS011;38719;51.418;7.286;2022-09-27T11:01:51;4.55;;;1.88;;
52854;SDS011;38719;51.418;7.286;2022-09-27T11:04:27;3.55;;;2.15;;
52854;SDS011;38719;51.418;7.286;2022-09-27T11:07:06;3.47;;;2.10;;
52854;SDS011;38719;51.418;7.286;2022-09-27T11:09:43;4.30;;;2.42;;
52854;SDS011;38719;51.418;7.286;2022-09-27T11:12:13;4.25;;;2.30;;
52854;SDS011;38719;51.418;7.286;2022-09-27T11:14:43;3.10;;;2.47;;
52854;SDS011;38719;51.418;7.286;2022-09-27T11:17:18;4.05;;;2.08;;
52854;SDS011;38719;51.418;7.286;2022-09-27T11:19:57;3.33;;;1.83;;
52854;SDS011;38719;51.418;7.286;2022-09-27T11:22:43;2.25;;;1.80;;
52854;SDS011;38719;51.418;7.286;2022-09-27T11:25:25;3.65;;;2.03;;
52854;SDS011;38719;51.418;7.286;2022-09-27T11:28:05;2.47;;;1.65;;
52854;SDS011;38719;51.418;7.286;2022-09-27T11:30:46;2.03;;;1.60;;
52854;SDS011;38719;51.418;7.286;2022-09-27T11:36:31;2.97;;;1.75;;
52854;SDS011;38719;51.418;7.286;2022-09-27T11:39:09;4.43;;;1.83;;
52854;SDS011;38719;51.418;7.286;2022-09-27T11:41:52;3.15;;;1.70;;
52854;SDS011;38719;51.418;7.286;2022-09-27T11:44:39;3.38;;;1.85;;
52854;SDS011;38719;51.418;7.286;2022-09-27T11:47:16;2.45;;;1.90;;
52854;SDS011;38719;51.418;7.286;2022-09-27T11:50:04;3.15;;;1.77;;
52854;SDS011;38719;51.418;7.286;2022-09-27T11:52:53;4.30;;;1.90;;
52854;SDS011;38719;51.418;7.286;2022-09-27T11:55:34;4.18;;;1.73;;
52854;SDS011;38719;51.418;7.286;2022-09-27T11:58:14;3.08;;;1.92;;
52854;SDS011;38719;51.418;7.286;2022-09-27T12:00:56;3.38;;;1.90;;
52854;SDS011;38719;51.418;7.286;2022-09-27T12:03:50;2.50;;;1.80;;
52854;SDS011;38719;51.418;7.286;2022-09-27T12:06:44;2.47;;;1.90;;
52854;SDS011;38719;51.418;7.286;2022-09-27T12:09:17;2.45;;;2.13;;
52854;SDS011;38719;51.418;7.286;2022-09-27T12:11:49;7.57;;;2.25;;
52854;SDS011;38719;51.418;7.286;2022-09-27T12:14:21;4.10;;;2.05;;
52854;SDS011;38719;51.418;7.286;2022-09-27T12:16:54;2.92;;;2.00;;
52854;SDS011;38719;51.418;7.286;2022-09-27T12:19:24;4.93;;;2.20;;
52854;SDS011;38719;51.418;7.286;2022-09-27T12:21:56;3.33;;;2.97;;
52854;SDS011;38719;51.418;7.286;2022-09-27T12:24:31;5.80;;;3.03;;
52854;SDS011;38719;51.418;7.286;2022-09-27T12:27:00;3.03;;;2.40;;
52854;SDS011;38719;51.418;7.286;2022-09-27T12:29:35;3.13;;;2.40;;
52854;SDS011;38719;51.418;7.286;2022-09-27T12:32:08;3.40;;;2.60;;
52854;SDS011;38719;51.418;7.286;2022-09-27T12:34:43;3.25;;;2.60;;
52854;SDS011;38719;51.418;7.286;2022-09-27T12:37:20;4.78;;;3.05;;
52854;SDS011;38719;51.418;7.286;2022-09-27T12:39:52;6.38;;;2.88;;
52854;SDS011;38719;51.418;7.286;2022-09-27T12:42:26;4.35;;;3.25;;
52854;SDS011;38719;51.418;7.286;2022-09-27T12:44:58;5.60;;;3.42;;
52854;SDS011;38719;51.418;7.286;2022-09-27T12:47:37;3.53;;;2.70;;
52854;SDS011;38719;51.418;7.286;2022-09-27T12:50:16;6.43;;;3.10;;
52854;SDS011;38719;51.418;7.286;2022-09-27T12:52:56;4.68;;;3.20;;
52854;SDS011;38719;51.418;7.286;2022-09-27T12:58:32;2.70;;;2.50;;
52854;SDS011;38719;51.418;7.286;2022-09-27T13:01:14;4.25;;;3.25;;
52854;SDS011;38719;51.418;7.286;2022-09-27T13:03:55;6.60;;;3.92;;
52854;SDS011;38719;51.418;7.286;2022-09-27T13:06:50;6.43;;;2.50;;
52854;SDS011;38719;51.418;7.286;2022-09-27T13:09:50;3.58;;;2.85;;
52854;SDS011;38719;51.418;7.286;2022-09-27T13:12:51;3.47;;;2.95;;
52854;SDS011;38719;51.418;7.286;2022-09-27T13:15:21;3.88;;;2.60;;
52854;SDS011;38719;51.418;7.286;2022-09-27T13:17:54;3.60;;;3.05;;
52854;SDS011;38719;51.418;7.286;2022-09-27T13:20:31;4.03;;;3.10;;
52854;SDS011;38719;51.418;7.286;2022-09-27T13:23:47;5.25;;;3.15;;
52854;SDS011;38719;51.418;7.286;2022-09-27T13:26:23;4.35;;;3.15;;
52854;SDS011;38719;51.418;7.286;2022-09-27T13:29:22;4.32;;;3.50;;
52854;SDS011;38719;51.418;7.286;2022-09-27T13:34:50;4.38;;;3.08;;
52854;SDS011;38719;51.418;7.286;2022-09-27T13:43:20;4.50;;;2.83;;
52854;SDS011;38719;51.418;7.286;2022-09-27T13:46:00;4.47;;;2.53;;
52854;SDS011;38719;51.418;7.286;2022-09-27T13:48:36;7.60;;;4.25;;
52854;SDS011;38719;51.418;7.286;2022-09-27T13:51:27;3.72;;;3.00;;
52854;SDS011;38719;51.418;7.286;2022-09-27T13:54:01;4.28;;;2.67;;
52854;SDS011;38719;51.418;7.286;2022-09-27T13:56:52;4.80;;;2.95;;
52854;SDS011;38719;51.418;7.286;2022-09-27T13:59:28;2.90;;;2.60;;
52854;SDS011;38719;51.418;7.286;2022-09-27T14:02:01;4.50;;;3.88;;
52854;SDS011;38719;51.418;7.286;2022-09-27T14:04:40;4.75;;;3.20;;
52854;SDS011;38719;51.418;7.286;2022-09-27T14:07:11;5.00;;;3.08;;
52854;SDS011;38719;51.418;7.286;2022-09-27T14:09:43;4.35;;;3.25;;
52854;SDS011;38719;51.418;7.286;2022-09-27T14:12:15;4.55;;;2.90;;
52854;SDS011;38719;51.418;7.286;2022-09-27T14:14:46;4.13;;;3.28;;
52854;SDS011;38719;51.418;7.286;2022-09-27T14:17:15;4.88;;;3.13;;
52854;SDS011;38719;51.418;7.286;2022-09-27T14:19:43;4.68;;;3.35;;
52854;SDS011;38719;51.418;7.286;2022-09-27T14:22:14;3.95;;;3.45;;
52854;SDS011;38719;51.418;7.286;2022-09-27T14:24:46;4.25;;;3.40;;
52854;SDS011;38719;51.418;7.286;2022-09-27T14:27:17;4.13;;;3.22;;
52854;SDS011;38719;51.418;7.286;2022-09-27T14:29:49;4.88;;;3.15;;
52854;SDS011;38719;51.418;7.286;2022-09-27T14:32:19;3.65;;;2.92;;
52854;SDS011;38719;51.418;7.286;2022-09-27T14:35:01;5.32;;;3.10;;
52854;SDS011;38719;51.418;7.286;2022-09-27T14:37:31;4.53;;;3.28;;
52854;SDS011;38719;51.418;7.286;2022-09-27T14:39:59;4.60;;;3.70;;
52854;SDS011;38719;51.418;7.286;2022-09-27T14:42:32;3.45;;;2.92;;
52854;SDS011;38719;51.418;7.286;2022-09-27T14:45:05;4.63;;;2.88;;
52854;SDS011;38719;51.418;7.286;2022-09-27T14:47:44;8.25;;;3.15;;
52854;SDS011;38719;51.418;7.286;2022-09-27T14:50:16;5.18;;;3.45;;
52854;SDS011;38719;51.418;7.286;2022-09-27T14:52:46;4.15;;;3.30;;
52854;SDS011;38719;51.418;7.286;2022-09-27T14:55:15;6.10;;;3.70;;
52854;SDS011;38719;51.418;7.286;2022-09-27T14:57:45;5.90;;;3.35;;
52854;SDS011;38719;51.418;7.286;2022-09-27T15:00:18;4.20;;;2.50;;
52854;SDS011;38719;51.418;7.286;2022-09-27T15:02:48;3.47;;;2.60;;
52854;SDS011;38719;51.418;7.286;2022-09-27T15:05:20;4.70;;;2.45;;
52854;SDS011;38719;51.418;7.286;2022-09-27T15:07:49;2.30;;;2.10;;
52854;SDS011;38719;51.418;7.286;2022-09-27T15:10:21;3.85;;;2.42;;
52854;SDS011;38719;51.418;7.286;2022-09-27T15:12:52;4.55;;;2.60;;
52854;SDS011;38719;51.418;7.286;2022-09-27T15:15:26;5.78;;;2.10;;
52854;SDS011;38719;51.418;7.286;2022-09-27T15:17:57;2.28;;;2.08;;
52854;SDS011;38719;51.418;7.286;2022-09-27T15:20:26;3.50;;;2.22;;
52854;SDS011;38719;51.418;7.286;2022-09-27T15:25:29;3.38;;;2.28;;
52854;SDS011;38719;51.418;7.286;2022-09-27T15:28:00;3.63;;;2.60;;
52854;SDS011;38719;51.418;7.286;2022-09-27T15:30:35;2.60;;;2.20;;
52854;SDS011;38719;51.418;7.286;2022-09-27T15:33:06;2.40;;;1.88;;
52854;SDS011;38719;51.418;7.286;2022-09-27T15:35:46;3.83;;;1.90;;
52854;SDS011;38719;51.418;7.286;2022-09-27T15:38:23;2.50;;;2.00;;
52854;SDS011;38719;51.418;7.286;2022-09-27T15:40:56;4.30;;;1.80;;
52854;SDS011;38719;51.418;7.286;2022-09-27T15:43:27;3.45;;;1.98;;
52854;SDS011;38719;51.418;7.286;2022-09-27T15:45:57;3.22;;;1.85;;